Time;durP1;ratioP1;P1;durP2;ratioP2;P2;SDS_P1;SDS_P2;PMS_P1;PMS_P2;Temp;Humidity;BMP_temperature;BMP_pressure;BME280_temperature;BME280_humidity;BME280_pressure;Samples;Min_cycle;Max_cycle;Signal;HPM_P1;HPM_P2
2024/01/07 00:01:23;;;;;;;16.63;9.63;;;;;;;-145.63;100.00;61273.97;5085937;28;20028;-67
2024/01/07 00:03:51;;;;;;;16.85;9.27;;;;;;;-145.63;100.00;61273.97;5080202;28;20065;-65
2024/01/07 00:06:16;;;;;;;16.48;9.45;;;;;;;-145.63;100.00;61273.97;5066410;28;20092;-66
2024/01/07 00:08:42;;;;;;;12.90;8.88;;;;;;;-145.63;100.00;61273.97;5085776;28;20051;-67
2024/01/07 00:11:08;;;;;;;16.80;10.05;;;;;;;-145.63;100.00;61273.97;5085252;28;20074;-66
2024/01/07 00:13:33;;;;;;;19.60;9.95;;;;;;;-145.63;100.00;61273.97;5085706;28;20025;-66
2024/01/07 00:15:59;;;;;;;15.23;9.25;;;;;;;-145.63;100.00;61273.97;5078856;28;20032;-67
2024/01/07 00:18:24;;;;;;;15.88;9.82;;;;;;;-145.63;100.00;61273.97;5067475;28;20079;-66
2024/01/07 00:20:50;;;;;;;14.77;9.27;;;;;;;-145.63;100.00;61273.97;5085416;28;20228;-66
2024/01/07 00:23:16;;;;;;;15.68;9.57;;;;;;;-145.63;100.00;61273.97;5068421;28;20024;-67
2024/01/07 00:25:41;;;;;;;17.05;8.90;;;;;;;-145.63;100.00;61273.97;5078323;28;20024;-66
2024/01/07 00:28:07;;;;;;;16.95;9.43;;;;;;;-145.63;100.00;61273.97;5077819;28;20198;-66
2024/01/07 00:30:33;;;;;;;18.10;9.73;;;;;;;-145.63;100.00;61273.97;5067990;28;20021;-66
2024/01/07 00:32:58;;;;;;;16.48;9.63;;;;;;;-145.63;100.00;61273.97;5084913;28;20020;-65
2024/01/07 00:35:24;;;;;;;15.85;10.05;;;;;;;-145.63;100.00;61273.97;5066564;28;20029;-67
2024/01/07 00:37:50;;;;;;;15.80;9.02;;;;;;;-145.63;100.00;61273.97;5078054;28;20255;-66
2024/01/07 00:40:16;;;;;;;17.92;9.93;;;;;;;-145.63;100.00;61273.97;5076277;28;20025;-65
2024/01/07 00:42:41;;;;;;;24.10;9.27;;;;;;;-145.63;100.00;61273.97;5068483;28;20056;-65
2024/01/07 00:45:08;;;;;;;17.65;9.45;;;;;;;-145.63;100.00;61273.97;5085162;28;20067;-66
2024/01/07 00:47:34;;;;;;;18.75;10.68;;;;;;;-145.63;100.00;61273.97;5065271;28;20025;-65
2024/01/07 00:49:59;;;;;;;15.93;9.48;;;;;;;-145.63;100.00;61273.97;5083623;28;20028;-66
2024/01/07 00:52:25;;;;;;;17.83;9.32;;;;;;;-145.63;100.00;61273.97;5077014;28;20028;-66
2024/01/07 00:54:51;;;;;;;15.95;9.43;;;;;;;-145.63;100.00;61273.97;5099718;28;20028;-67
2024/01/07 00:57:16;;;;;;;14.23;8.40;;;;;;;-145.63;100.00;61273.97;5083997;28;20025;-65
2024/01/07 00:59:42;;;;;;;14.82;9.23;;;;;;;-145.63;100.00;61273.97;5064607;28;20051;-66
2024/01/07 01:02:08;;;;;;;14.50;8.90;;;;;;;-145.63;100.00;61273.97;5080079;28;20024;-66
2024/01/07 01:04:34;;;;;;;14.05;8.27;;;;;;;-145.63;100.00;61273.97;5073627;28;20036;-66
2024/01/07 01:06:59;;;;;;;14.45;9.07;;;;;;;-145.63;100.00;61273.97;5070030;28;20229;-65
2024/01/07 01:09:28;;;;;;;15.85;10.07;;;;;;;-145.63;100.00;61273.97;5083606;28;20074;-65
2024/01/07 01:11:53;;;;;;;14.35;9.40;;;;;;;-145.63;100.00;61273.97;5084063;28;20062;-64
2024/01/07 01:14:19;;;;;;;15.27;9.32;;;;;;;-145.63;100.00;61273.97;5084634;28;20032;-65
2024/01/07 01:16:45;;;;;;;14.02;8.63;;;;;;;-145.63;100.00;61273.97;5071281;28;20032;-66
2024/01/07 01:19:10;;;;;;;15.70;9.13;;;;;;;-145.63;100.00;61273.97;5071860;28;20081;-65
2024/01/07 01:21:36;;;;;;;15.77;9.10;;;;;;;-145.63;100.00;61273.97;5081388;28;20086;-64
2024/01/07 01:24:01;;;;;;;15.48;8.30;;;;;;;-145.63;100.00;61273.97;5064051;28;20337;-65
2024/01/07 01:26:27;;;;;;;16.25;9.05;;;;;;;-145.63;100.00;61273.97;5081931;28;20028;-66
2024/01/07 01:28:53;;;;;;;13.55;8.60;;;;;;;-145.63;100.00;61273.97;5079349;28;20219;-67
2024/01/07 01:31:18;;;;;;;13.43;8.90;;;;;;;-145.63;100.00;61273.97;5085950;28;20081;-66
2024/01/07 01:33:44;;;;;;;13.65;8.52;;;;;;;-145.63;100.00;61273.97;5082151;28;20048;-65
2024/01/07 01:36:10;;;;;;;14.30;8.27;;;;;;;-145.63;100.00;61273.97;5083736;28;20040;-66
2024/01/07 01:38:35;;;;;;;15.27;8.48;;;;;;;-145.63;100.00;61273.97;5064771;28;20037;-66
2024/01/07 01:41:01;;;;;;;16.80;8.65;;;;;;;-145.63;100.00;61273.97;5077805;28;20037;-65
2024/01/07 01:43:28;;;;;;;12.70;8.57;;;;;;;-145.63;100.00;61273.97;5073869;28;20036;-65
2024/01/07 01:45:55;;;;;;;15.60;8.07;;;;;;;-145.63;100.00;61273.97;5050689;28;20024;-66
2024/01/07 01:48:23;;;;;;;13.98;8.27;;;;;;;-145.63;100.00;61273.97;5083961;28;20027;-66
2024/01/07 01:50:49;;;;;;;14.18;8.10;;;;;;;-145.63;100.00;61273.97;5068620;28;20464;-66
2024/01/07 01:53:15;;;;;;;14.48;8.20;;;;;;;-145.63;100.00;61273.97;5067342;28;20021;-66
2024/01/07 01:55:42;;;;;;;14.43;8.98;;;;;;;-145.63;100.00;61273.97;5073637;28;20036;-67
2024/01/07 01:58:13;;;;;;;15.55;8.20;;;;;;;-145.63;100.00;61273.97;5082926;28;20024;-66
2024/01/07 02:00:40;;;;;;;15.65;8.32;;;;;;;-145.63;100.00;61273.97;5083449;28;20051;-66
2024/01/07 02:03:06;;;;;;;16.45;8.45;;;;;;;-145.63;100.00;61273.97;5083276;28;20037;-66
2024/01/07 02:05:31;;;;;;;13.23;7.72;;;;;;;-145.63;100.00;61273.97;5065096;28;20072;-66
2024/01/07 02:07:58;;;;;;;14.45;8.02;;;;;;;-145.63;100.00;61273.97;5076352;28;20065;-66
2024/01/07 02:10:23;;;;;;;14.43;8.43;;;;;;;-145.63;100.00;61273.97;5083211;28;20032;-66
2024/01/07 02:12:49;;;;;;;11.85;7.75;;;;;;;-145.63;100.00;61273.97;5082972;28;20021;-66
2024/01/07 02:15:15;;;;;;;13.48;8.23;;;;;;;-145.63;100.00;61273.97;5083165;28;20320;-66
2024/01/07 02:17:41;;;;;;;12.93;8.00;;;;;;;-145.63;100.00;61273.97;5045748;28;20047;-67
2024/01/07 02:20:07;;;;;;;11.55;7.75;;;;;;;-145.63;100.00;61273.97;5077018;28;20056;-66
2024/01/07 02:22:33;;;;;;;11.52;7.50;;;;;;;-145.63;100.00;61273.97;5072583;28;20021;-66
2024/01/07 02:24:59;;;;;;;12.10;7.95;;;;;;;-145.63;100.00;61273.97;5067568;28;20024;-65
2024/01/07 02:27:24;;;;;;;13.98;8.82;;;;;;;-145.63;100.00;61273.97;5082231;28;20120;-65
2024/01/07 02:29:50;;;;;;;12.88;8.25;;;;;;;-145.63;100.00;61273.97;5062623;28;20305;-66
2024/01/07 02:32:16;;;;;;;13.45;8.35;;;;;;;-145.63;100.00;61273.97;5078614;28;20032;-67
2024/01/07 02:34:41;;;;;;;14.27;8.63;;;;;;;-145.63;100.00;61273.97;5093935;28;20023;-66
2024/01/07 02:37:07;;;;;;;13.55;8.15;;;;;;;-145.63;100.00;61273.97;5063304;28;20053;-65
2024/01/07 02:39:32;;;;;;;13.68;8.20;;;;;;;-145.63;100.00;61273.97;5060885;28;20209;-66
2024/01/07 02:41:58;;;;;;;13.32;7.53;;;;;;;-145.63;100.00;61273.97;5042908;28;20041;-67
2024/01/07 02:44:24;;;;;;;13.63;8.13;;;;;;;-145.63;100.00;61273.97;5059673;28;20309;-67
2024/01/07 02:46:49;;;;;;;14.50;8.05;;;;;;;-145.63;100.00;61273.97;5049997;28;20029;-65
2024/01/07 02:49:15;;;;;;;13.02;8.05;;;;;;;-145.63;100.00;61273.97;5051907;28;20025;-66
2024/01/07 02:51:41;;;;;;;16.33;8.13;;;;;;;-145.63;100.00;61273.97;5059649;28;20048;-65
2024/01/07 02:54:06;;;;;;;14.82;7.82;;;;;;;-145.63;100.00;61273.97;5041964;28;20033;-67
2024/01/07 02:56:32;;;;;;;14.00;8.40;;;;;;;-145.63;100.00;61273.97;5060467;28;20032;-66
2024/01/07 02:58:57;;;;;;;12.02;7.07;;;;;;;-145.63;100.00;61273.97;5075594;28;20024;-65
2024/01/07 03:01:23;;;;;;;13.05;7.60;;;;;;;-145.63;100.00;61273.97;5074170;28;20285;-66
2024/01/07 03:03:49;;;;;;;13.77;7.93;;;;;;;-145.63;100.00;61273.97;5058364;28;20033;-65
2024/01/07 03:06:15;;;;;;;12.98;7.75;;;;;;;-145.63;100.00;61273.97;5042560;28;20049;-67
2024/01/07 03:08:42;;;;;;;11.15;7.25;;;;;;;-145.63;100.00;61273.97;5061276;28;20256;-66
2024/01/07 03:11:08;;;;;;;13.95;7.82;;;;;;;-145.63;100.00;61273.97;5069902;28;20052;-66
2024/01/07 03:13:34;;;;;;;14.38;7.63;;;;;;;-145.63;100.00;61273.97;5042414;28;20029;-67
2024/01/07 03:16:00;;;;;;;14.55;7.13;;;;;;;-145.63;100.00;61273.97;5047524;28;20040;-66
2024/01/07 03:18:27;;;;;;;14.25;7.40;;;;;;;-145.63;100.00;61273.97;5062221;28;20256;-66
2024/01/07 03:20:53;;;;;;;16.02;8.15;;;;;;;-145.63;100.00;61273.97;5062216;28;20025;-65
2024/01/07 03:23:18;;;;;;;13.15;7.53;;;;;;;-145.63;100.00;61273.97;5046512;28;20317;-65
2024/01/07 03:25:44;;;;;;;14.10;7.90;;;;;;;-145.63;100.00;61273.97;5052171;28;20371;-65
2024/01/07 03:28:10;;;;;;;16.17;8.15;;;;;;;-145.63;100.00;61273.97;5055347;28;20029;-66
2024/01/07 03:30:35;;;;;;;13.38;7.28;;;;;;;-145.63;100.00;61273.97;5043610;28;20026;-65
2024/01/07 03:33:01;;;;;;;12.88;7.53;;;;;;;-145.63;100.00;61273.97;5066026;28;20086;-64
2024/01/07 03:35:27;;;;;;;13.65;7.20;;;;;;;-145.63;100.00;61273.97;5049870;28;20033;-67
2024/01/07 03:37:53;;;;;;;12.27;7.13;;;;;;;-145.63;100.00;61273.97;5065888;28;20092;-65
2024/01/07 03:40:18;;;;;;;16.85;7.93;;;;;;;-145.63;100.00;61273.97;5065732;28;20103;-66
2024/01/07 03:42:44;;;;;;;15.52;7.88;;;;;;;-145.63;100.00;61273.97;5065453;28;20265;-65
2024/01/07 03:45:10;;;;;;;12.70;7.05;;;;;;;-145.63;100.00;61273.97;5065754;28;20025;-65
2024/01/07 03:47:36;;;;;;;13.27;7.45;;;;;;;-145.63;100.00;61273.97;5065736;28;20308;-65
2024/01/07 03:50:01;;;;;;;13.80;7.07;;;;;;;-145.63;100.00;61273.97;5068148;28;20063;-65
2024/01/07 03:52:29;;;;;;;14.98;7.40;;;;;;;-145.63;100.00;61273.97;5065990;28;20029;-64
2024/01/07 03:54:55;;;;;;;13.55;7.93;;;;;;;-145.63;100.00;61273.97;5065035;28;20043;-66
2024/01/07 03:57:21;;;;;;;13.38;6.63;;;;;;;-145.63;100.00;61273.97;5066037;28;20095;-63
2024/01/07 03:59:46;;;;;;;16.65;8.10;;;;;;;-145.63;100.00;61273.97;5065584;28;20029;-64
2024/01/07 04:02:16;;;;;;;9.95;5.60;;;;;;;-145.63;100.00;61273.97;5065487;28;20031;-65
2024/01/07 04:04:42;;;;;;;9.85;6.03;;;;;;;-145.63;100.00;61273.97;5065403;28;20025;-65
2024/01/07 04:07:07;;;;;;;11.50;6.10;;;;;;;-145.63;100.00;61273.97;5064901;28;20040;-62
2024/01/07 04:09:33;;;;;;;14.95;7.75;;;;;;;-145.63;100.00;61273.97;5065183;28;20024;-63
2024/01/07 04:11:58;;;;;;;12.45;6.57;;;;;;;-145.63;100.00;61273.97;5065073;28;20301;-64
2024/01/07 04:14:27;;;;;;;9.82;5.68;;;;;;;-145.63;100.00;61273.97;5064880;28;20025;-64
2024/01/07 04:16:52;;;;;;;11.57;6.57;;;;;;;-145.63;100.00;61273.97;5064402;28;20316;-66
2024/01/07 04:19:18;;;;;;;12.40;7.18;;;;;;;-145.63;100.00;61273.97;5072100;28;20055;-63
2024/01/07 04:21:47;;;;;;;11.13;7.05;;;;;;;-145.63;100.00;61273.97;5085074;28;20024;-64
2024/01/07 04:24:12;;;;;;;12.05;6.95;;;;;;;-145.63;100.00;61273.97;5085164;28;20316;-64
2024/01/07 04:26:38;;;;;;;15.18;7.15;;;;;;;-145.63;100.00;61273.97;5084856;28;20020;-66
2024/01/07 04:29:03;;;;;;;13.75;7.10;;;;;;;-145.63;100.00;61273.97;5066681;28;20078;-66
2024/01/07 04:31:29;;;;;;;16.20;7.38;;;;;;;-145.63;100.00;61273.97;5084733;28;20182;-65
2024/01/07 04:33:55;;;;;;;12.48;6.28;;;;;;;-145.63;100.00;61273.97;5084689;28;20035;-66
2024/01/07 04:36:20;;;;;;;11.98;6.47;;;;;;;-145.63;100.00;61273.97;5093637;28;20189;-65
2024/01/07 04:38:46;;;;;;;15.50;7.63;;;;;;;-145.63;100.00;61273.97;5085973;28;20027;-65
2024/01/07 04:41:11;;;;;;;10.05;6.30;;;;;;;-145.63;100.00;61273.97;5070629;28;20210;-66
2024/01/07 04:43:37;;;;;;;15.20;6.72;;;;;;;-145.63;100.00;61273.97;5073289;28;20020;-66
2024/01/07 04:46:03;;;;;;;11.38;6.03;;;;;;;-145.63;100.00;61273.97;5080052;28;20025;-65
2024/01/07 04:48:28;;;;;;;13.48;5.68;;;;;;;-145.63;100.00;61273.97;5064852;28;20167;-65
2024/01/07 04:50:54;;;;;;;14.73;7.22;;;;;;;-145.63;100.00;61273.97;5084412;28;20036;-66
2024/01/07 04:53:20;;;;;;;13.27;6.82;;;;;;;-145.63;100.00;61273.97;5084522;28;20028;-66
2024/01/07 04:55:45;;;;;;;12.27;6.43;;;;;;;-145.63;100.00;61273.97;5073883;28;20033;-66
2024/01/07 04:58:11;;;;;;;13.75;7.05;;;;;;;-145.63;100.00;61273.97;5076007;28;20304;-65
2024/01/07 05:00:36;;;;;;;12.57;6.53;;;;;;;-145.63;100.00;61273.97;5103901;28;20019;-65
2024/01/07 05:03:02;;;;;;;13.02;6.70;;;;;;;-145.63;100.00;61273.97;5084429;28;20222;-65
2024/01/07 05:05:28;;;;;;;13.77;6.95;;;;;;;-145.63;100.00;61273.97;5068034;28;20039;-65
2024/01/07 05:07:55;;;;;;;12.82;7.13;;;;;;;-145.63;100.00;61273.97;5076785;28;20224;-64
2024/01/07 05:10:20;;;;;;;11.95;6.90;;;;;;;-145.63;100.00;61273.97;5077032;28;20029;-65
2024/01/07 05:12:46;;;;;;;14.18;6.47;;;;;;;-145.63;100.00;61273.97;5080948;28;20039;-64
2024/01/07 05:15:12;;;;;;;11.40;6.63;;;;;;;-145.63;100.00;61273.97;5084268;28;20033;-65
2024/01/07 05:17:37;;;;;;;11.15;6.35;;;;;;;-145.63;100.00;61273.97;5066597;28;20076;-66
2024/01/07 05:20:03;;;;;;;12.05;7.38;;;;;;;-145.63;100.00;61273.97;5068283;28;20028;-65
2024/01/07 05:22:29;;;;;;;15.55;7.22;;;;;;;-145.63;100.00;61273.97;5078324;28;20241;-65
2024/01/07 05:24:55;;;;;;;14.60;7.10;;;;;;;-145.63;100.00;61273.97;5080364;28;20029;-64
2024/01/07 05:27:20;;;;;;;10.82;6.15;;;;;;;-145.63;100.00;61273.97;5064376;28;20078;-65
2024/01/07 05:29:47;;;;;;;12.73;6.78;;;;;;;-145.63;100.00;61273.97;5082661;28;20190;-65
2024/01/07 05:32:12;;;;;;;12.95;6.03;;;;;;;-145.63;100.00;61273.97;5069797;28;20024;-65
2024/01/07 05:34:38;;;;;;;15.57;7.32;;;;;;;-145.63;100.00;61273.97;5072832;28;20028;-65
2024/01/07 05:37:04;;;;;;;10.93;6.60;;;;;;;-145.63;100.00;61273.97;5064545;28;20053;-66
2024/01/07 05:39:29;;;;;;;13.38;7.00;;;;;;;-145.63;100.00;61273.97;5043791;28;20034;-65
2024/01/07 05:41:55;;;;;;;17.92;6.63;;;;;;;-145.63;100.00;61273.97;5063313;28;20104;-65
2024/01/07 05:44:21;;;;;;;18.15;7.30;;;;;;;-145.63;100.00;61273.97;5048945;28;20317;-64
2024/01/07 05:46:46;;;;;;;15.00;7.30;;;;;;;-145.63;100.00;61273.97;5053399;28;20021;-64
2024/01/07 05:49:12;;;;;;;14.68;7.07;;;;;;;-145.63;100.00;61273.97;5065089;28;20059;-65
2024/01/07 05:51:41;;;;;;;15.65;7.18;;;;;;;-145.63;100.00;61273.97;5063111;28;20376;-65
2024/01/07 05:54:07;;;;;;;13.20;6.30;;;;;;;-145.63;100.00;61273.97;5043080;28;20055;-65
2024/01/07 05:56:32;;;;;;;13.90;7.28;;;;;;;-145.63;100.00;61273.97;5059691;28;20245;-65
2024/01/07 05:58:58;;;;;;;11.00;5.68;;;;;;;-145.63;100.00;61273.97;5063097;28;20092;-65
2024/01/07 06:01:24;;;;;;;14.15;6.85;;;;;;;-145.63;100.00;61273.97;5056671;28;20310;-66
2024/01/07 06:03:49;;;;;;;14.00;7.20;;;;;;;-145.63;100.00;61273.97;5047433;28;20080;-65
2024/01/07 06:06:15;;;;;;;12.13;6.78;;;;;;;-145.63;100.00;61273.97;5083094;28;20024;-65
2024/01/07 06:08:42;;;;;;;15.07;7.45;;;;;;;-145.63;100.00;61273.97;5046313;28;20029;-65
2024/01/07 06:11:08;;;;;;;11.25;5.72;;;;;;;-145.63;100.00;61273.97;5055857;28;20323;-65
2024/01/07 06:13:34;;;;;;;13.80;6.35;;;;;;;-145.63;100.00;61273.97;5063083;28;20385;-67
2024/01/07 06:15:59;;;;;;;12.27;6.88;;;;;;;-145.63;100.00;61273.97;5059403;28;20053;-65
2024/01/07 06:18:25;;;;;;;14.90;7.30;;;;;;;-145.63;100.00;61273.97;5043170;28;20309;-65
2024/01/07 06:20:51;;;;;;;15.40;7.65;;;;;;;-145.63;100.00;61273.97;5061350;28;20289;-66
2024/01/07 06:23:16;;;;;;;16.65;6.57;;;;;;;-145.63;100.00;61273.97;5048894;28;20035;-66
2024/01/07 06:25:42;;;;;;;13.38;6.32;;;;;;;-145.63;100.00;61273.97;5051965;28;20217;-65
2024/01/07 06:28:09;;;;;;;15.45;6.60;;;;;;;-145.63;100.00;61273.97;5058447;28;20021;-64
2024/01/07 06:30:34;;;;;;;16.00;7.13;;;;;;;-145.63;100.00;61273.97;5042609;28;20095;-66
2024/01/07 06:33:00;;;;;;;14.02;6.60;;;;;;;-145.63;100.00;61273.97;5062112;28;20029;-65
2024/01/07 06:35:26;;;;;;;12.90;6.68;;;;;;;-145.63;100.00;61273.97;5048286;28;20040;-67
2024/01/07 06:37:51;;;;;;;13.65;6.60;;;;;;;-145.63;100.00;61273.97;5054821;28;20044;-66
2024/01/07 06:40:17;;;;;;;15.77;7.63;;;;;;;-145.63;100.00;61273.97;5077029;28;20036;-64
2024/01/07 06:42:44;;;;;;;15.07;6.80;;;;;;;-145.63;100.00;61273.97;5063599;28;20031;-67
2024/01/07 06:45:10;;;;;;;13.38;6.60;;;;;;;-145.63;100.00;61273.97;5082745;28;20056;-66
2024/01/07 06:47:36;;;;;;;11.63;5.50;;;;;;;-145.63;100.00;61273.97;5066486;28;20035;-66
2024/01/07 06:50:01;;;;;;;12.93;7.00;;;;;;;-145.63;100.00;61273.97;5074934;28;20024;-65
2024/01/07 06:52:30;;;;;;;12.73;6.72;;;;;;;-145.63;100.00;61273.97;5075752;28;20029;-63
2024/01/07 06:54:55;;;;;;;9.45;5.82;;;;;;;-145.63;100.00;61273.97;5065024;28;20035;-65
2024/01/07 06:57:21;;;;;;;16.77;7.10;;;;;;;-145.63;100.00;61273.97;5082896;28;20028;-65
2024/01/07 06:59:47;;;;;;;12.35;6.78;;;;;;;-145.63;100.00;61273.97;5083129;28;20051;-65
2024/01/07 07:02:12;;;;;;;11.68;6.00;;;;;;;-145.63;100.00;61273.97;5069793;28;20029;-66
2024/01/07 07:04:38;;;;;;;14.23;6.65;;;;;;;-145.63;100.00;61273.97;5070604;28;20032;-66
2024/01/07 07:07:03;;;;;;;11.77;6.35;;;;;;;-145.63;100.00;61273.97;5087336;28;20332;-66
2024/01/07 07:09:29;;;;;;;14.05;6.80;;;;;;;-145.63;100.00;61273.97;5089243;28;20066;-65
2024/01/07 07:11:54;;;;;;;12.15;7.03;;;;;;;-145.63;100.00;61273.97;5079655;28;20285;-65
2024/01/07 07:14:20;;;;;;;14.43;6.38;;;;;;;-145.63;100.00;61273.97;5089090;28;20043;-66
2024/01/07 07:16:46;;;;;;;14.30;6.45;;;;;;;-145.63;100.00;61273.97;5079630;28;20071;-64
2024/01/07 07:19:14;;;;;;;11.00;5.97;;;;;;;-145.63;100.00;61273.97;5073469;28;20086;-65
2024/01/07 07:21:40;;;;;;;11.95;6.65;;;;;;;-145.63;100.00;61273.97;5089013;28;20048;-64
2024/01/07 07:24:06;;;;;;;13.50;6.70;;;;;;;-145.63;100.00;61273.97;5068945;28;20086;-64
2024/01/07 07:26:32;;;;;;;16.40;7.32;;;;;;;-145.63;100.00;61273.97;5084431;28;20224;-66
2024/01/07 07:28:57;;;;;;;15.82;7.28;;;;;;;-145.63;100.00;61273.97;5078116;28;20027;-66
2024/01/07 07:31:23;;;;;;;15.25;7.18;;;;;;;-145.63;100.00;61273.97;5074844;28;20029;-64
2024/01/07 07:33:48;;;;;;;13.15;7.35;;;;;;;-145.63;100.00;61273.97;5087781;28;20029;-65
2024/01/07 07:36:15;;;;;;;12.93;7.30;;;;;;;-145.63;100.00;61273.97;5069040;28;20033;-65
2024/01/07 07:38:41;;;;;;;15.63;7.68;;;;;;;-145.63;100.00;61273.97;5068476;28;20033;-67
2024/01/07 07:41:07;;;;;;;17.35;8.20;;;;;;;-145.63;100.00;61273.97;5068483;28;20039;-65
2024/01/07 07:43:33;;;;;;;18.65;7.45;;;;;;;-145.63;100.00;61273.97;5068627;28;20033;-64
2024/01/07 07:46:00;;;;;;;13.68;7.15;;;;;;;-145.63;100.00;61273.97;5068702;28;20174;-65
2024/01/07 07:48:26;;;;;;;14.93;7.25;;;;;;;-145.63;100.00;61273.97;5068836;28;20090;-65
2024/01/07 07:50:51;;;;;;;12.82;7.10;;;;;;;-145.63;100.00;61273.97;5086716;28;20305;-65
2024/01/07 07:53:18;;;;;;;14.65;7.63;;;;;;;-145.63;100.00;61273.97;5087640;28;20032;-64
2024/01/07 07:55:44;;;;;;;11.40;7.07;;;;;;;-145.63;100.00;61273.97;5089396;28;20040;-66
2024/01/07 07:58:09;;;;;;;13.02;7.38;;;;;;;-145.63;100.00;61273.97;5085046;28;20029;-65
2024/01/07 08:00:35;;;;;;;15.20;7.40;;;;;;;-145.63;100.00;61273.97;5069009;28;20028;-64
2024/01/07 08:03:01;;;;;;;13.70;7.53;;;;;;;-145.63;100.00;61273.97;5068547;28;20051;-64
2024/01/07 08:05:26;;;;;;;10.65;6.43;;;;;;;-145.63;100.00;61273.97;5068849;28;20028;-65
2024/01/07 08:07:52;;;;;;;14.23;7.38;;;;;;;-145.63;100.00;61273.97;5068253;28;20029;-67
2024/01/07 08:10:18;;;;;;;16.65;8.63;;;;;;;-145.63;100.00;61273.97;5068317;28;20029;-67
2024/01/07 08:12:44;;;;;;;14.27;8.07;;;;;;;-145.63;100.00;61273.97;5050985;28;20352;-67
2024/01/07 08:15:10;;;;;;;13.48;7.30;;;;;;;-145.63;100.00;61273.97;5068418;28;20027;-67
2024/01/07 08:17:36;;;;;;;17.75;8.60;;;;;;;-145.63;100.00;61273.97;5066806;28;20132;-66
2024/01/07 08:20:03;;;;;;;15.98;9.50;;;;;;;-145.63;100.00;61273.97;5065111;28;20047;-66
2024/01/07 08:22:30;;;;;;;18.70;9.48;;;;;;;-145.63;100.00;61273.97;5071663;28;20079;-66
2024/01/07 08:24:56;;;;;;;24.58;12.40;;;;;;;-145.63;100.00;61273.97;5084685;28;20024;-66
2024/01/07 08:27:22;;;;;;;16.08;9.93;;;;;;;-145.63;100.00;61273.97;5085238;28;20035;-69
2024/01/07 08:29:47;;;;;;;20.67;11.35;;;;;;;-145.63;100.00;61273.97;5050182;28;20314;-66
2024/01/07 08:32:13;;;;;;;14.50;9.32;;;;;;;-145.63;100.00;61273.97;5065018;28;20070;-66
2024/01/07 08:34:42;;;;;;;16.10;9.38;;;;;;;-145.63;100.00;61273.97;5063759;28;20033;-67
2024/01/07 08:37:08;;;;;;;15.48;9.60;;;;;;;-145.63;100.00;61273.97;5061753;28;20049;-63
2024/01/07 08:39:34;;;;;;;16.17;8.73;;;;;;;-145.63;100.00;61273.97;5027662;28;20045;-65
2024/01/07 08:42:00;;;;;;;13.70;8.75;;;;;;;-145.63;100.00;61273.97;5063386;28;20063;-65
2024/01/07 08:44:26;;;;;;;13.50;8.55;;;;;;;-145.63;100.00;61273.97;5050798;28;20029;-63
2024/01/07 08:46:51;;;;;;;14.60;8.50;;;;;;;-145.63;100.00;61273.97;5063056;28;20029;-65
2024/01/07 08:49:17;;;;;;;12.93;8.38;;;;;;;-145.63;100.00;61273.97;5080239;28;20067;-65
2024/01/07 08:51:43;;;;;;;15.02;8.85;;;;;;;-145.63;100.00;61273.97;5064554;28;20286;-65
2024/01/07 08:54:08;;;;;;;14.38;8.45;;;;;;;-145.63;100.00;61273.97;5064122;28;20187;-66
2024/01/07 08:56:34;;;;;;;14.38;8.32;;;;;;;-145.63;100.00;61273.97;5049363;28;20032;-65
2024/01/07 08:59:00;;;;;;;11.70;7.93;;;;;;;-145.63;100.00;61273.97;5054506;28;20025;-67
2024/01/07 09:01:26;;;;;;;14.70;8.57;;;;;;;-145.63;100.00;61273.97;5039568;28;20318;-65
2024/01/07 09:03:52;;;;;;;14.15;8.45;;;;;;;-145.63;100.00;61273.97;5063482;28;20032;-63
2024/01/07 09:06:17;;;;;;;11.90;7.85;;;;;;;-145.63;100.00;61273.97;5044657;28;20029;-65
2024/01/07 09:08:43;;;;;;;13.57;8.18;;;;;;;-145.63;100.00;61273.97;5066998;28;20062;-64
2024/01/07 09:11:11;;;;;;;13.23;7.50;;;;;;;-145.63;100.00;61273.97;5056236;28;20029;-65
2024/01/07 09:13:37;;;;;;;15.07;8.25;;;;;;;-145.63;100.00;61273.97;5057397;28;20224;-65
2024/01/07 09:16:03;;;;;;;13.73;7.68;;;;;;;-145.63;100.00;61273.97;5046356;28;20213;-66
2024/01/07 09:18:28;;;;;;;16.00;8.07;;;;;;;-145.63;100.00;61273.97;5064276;28;20037;-66
2024/01/07 09:20:54;;;;;;;13.23;7.65;;;;;;;-145.63;100.00;61273.97;5046252;28;20198;-66
2024/01/07 09:23:20;;;;;;;13.95;8.18;;;;;;;-145.63;100.00;61273.97;5056590;28;20033;-63
2024/01/07 09:25:46;;;;;;;12.77;7.72;;;;;;;-145.63;100.00;61273.97;5056048;28;20030;-65
2024/01/07 09:28:12;;;;;;;15.00;8.60;;;;;;;-145.63;100.00;61273.97;5047237;28;20193;-64
2024/01/07 09:30:38;;;;;;;15.30;8.57;;;;;;;-145.63;100.00;61273.97;5063634;28;20025;-65
2024/01/07 09:33:05;;;;;;;15.02;8.57;;;;;;;-145.63;100.00;61273.97;5044866;28;20368;-64
2024/01/07 09:35:31;;;;;;;16.23;8.75;;;;;;;-145.63;100.00;61273.97;5073106;28;20020;-66
2024/01/07 09:37:56;;;;;;;14.00;7.75;;;;;;;-145.63;100.00;61273.97;5094558;28;20028;-66
2024/01/07 09:40:22;;;;;;;12.50;7.88;;;;;;;-145.63;100.00;61273.97;5060742;28;20296;-65
2024/01/07 09:42:48;;;;;;;15.48;8.82;;;;;;;-145.63;100.00;61273.97;5063433;28;20024;-65
2024/01/07 09:45:14;;;;;;;13.55;7.90;;;;;;;-145.63;100.00;61273.97;5063602;28;20085;-66
2024/01/07 09:47:43;;;;;;;15.23;8.27;;;;;;;-145.63;100.00;61273.97;5078705;28;20340;-64
2024/01/07 09:50:10;;;;;;;14.75;7.95;;;;;;;-145.63;100.00;61273.97;5083201;28;20092;-67
2024/01/07 09:52:38;;;;;;;13.13;7.93;;;;;;;-145.63;100.00;61273.97;5076874;28;20088;-65
2024/01/07 09:55:08;;;;;;;14.32;7.88;;;;;;;-145.63;100.00;61273.97;5065006;28;20045;-66
2024/01/07 09:57:35;;;;;;;13.27;7.95;;;;;;;-145.63;100.00;61273.97;5083191;28;20305;-64
2024/01/07 10:00:01;;;;;;;13.05;7.80;;;;;;;-145.63;100.00;61273.97;5065003;28;20035;-64
2024/01/07 10:02:27;;;;;;;14.38;7.47;;;;;;;-145.63;100.00;61273.97;5076452;28;20305;-64
2024/01/07 10:04:52;;;;;;;15.75;8.15;;;;;;;-145.63;100.00;61273.97;5074257;28;20102;-66
2024/01/07 10:07:18;;;;;;;12.48;7.50;;;;;;;-145.63;100.00;61273.97;5070898;28;20070;-63
2024/01/07 10:09:44;;;;;;;10.73;7.05;;;;;;;-145.63;100.00;61273.97;5083151;28;20024;-67
2024/01/07 10:12:12;;;;;;;14.60;7.93;;;;;;;-145.63;100.00;61273.97;5057894;28;20381;-65
2024/01/07 10:14:40;;;;;;;15.48;7.60;;;;;;;-145.63;100.00;61273.97;5068043;28;20021;-65
2024/01/07 10:17:19;;;;;;;14.38;8.35;;;;;;;-145.63;100.00;61273.97;5072999;28;20052;-64
2024/01/07 10:19:46;;;;;;;15.15;8.18;;;;;;;-145.63;100.00;61273.97;5075257;28;20055;-66
2024/01/07 10:22:12;;;;;;;14.52;8.50;;;;;;;-145.63;100.00;61273.97;5065376;28;20040;-66
2024/01/07 10:24:43;;;;;;;12.30;7.53;;;;;;;-145.63;100.00;61273.97;5082897;28;20126;-64
2024/01/07 10:27:10;;;;;;;18.50;8.55;;;;;;;-145.63;100.00;61273.97;5029109;28;20041;-64
2024/01/07 10:29:36;;;;;;;18.58;8.93;;;;;;;-145.63;100.00;61273.97;5059073;28;20088;-64
2024/01/07 10:32:06;;;;;;;15.23;8.20;;;;;;;-145.63;100.00;61273.97;5072175;28;20024;-65
2024/01/07 10:34:33;;;;;;;16.80;8.88;;;;;;;-145.63;100.00;61273.97;5067451;28;20028;-63
2024/01/07 10:37:01;;;;;;;15.40;8.32;;;;;;;-145.63;100.00;61273.97;5079949;28;20041;-64
2024/01/07 10:39:27;;;;;;;21.45;11.95;;;;;;;-145.63;100.00;61273.97;5062177;28;20036;-65
2024/01/07 10:41:58;;;;;;;16.58;9.98;;;;;;;-145.63;100.00;61273.97;5077742;28;20524;-64
2024/01/07 10:44:33;;;;;;;17.88;9.85;;;;;;;-145.63;100.00;61273.97;5069604;28;20036;-66
2024/01/07 10:46:59;;;;;;;22.25;10.88;;;;;;;-145.63;100.00;61273.97;5071188;28;20356;-65
2024/01/07 10:49:28;;;;;;;17.20;10.77;;;;;;;-145.63;100.00;61273.97;5082538;28;20051;-64
2024/01/07 10:52:06;;;;;;;20.40;11.25;;;;;;;-145.63;100.00;61273.97;5082086;28;20020;-64
2024/01/07 10:54:33;;;;;;;20.50;11.00;;;;;;;-145.63;100.00;61273.97;5062306;28;20293;-66
2024/01/07 10:57:07;;;;;;;20.55;12.02;;;;;;;-145.63;100.00;61273.97;5079324;28;20031;-64